Time;durP1;ratioP1;P1;durP2;ratioP2;P2;SDS_P1;SDS_P2;PMS_P1;PMS_P2;Temp;Humidity;BMP_temperature;BMP_pressure;BME280_temperature;BME280_humidity;BME280_pressure;Samples;Min_cycle;Max_cycle;Signal;HPM_P1;HPM_P2
2023/07/17 10:11:32;;;;;;;;;;;;;;;-146.32;100.00;63746.28;2200998;23;20385;-67
2023/07/17 10:13:34;;;;;;;;;;;;;;;-146.32;100.00;63746.28;4098223;28;20431;-68
2023/07/17 10:15:36;;;;;;;;;;;;;;;-146.32;100.00;63746.28;4104224;28;20012;-67
2023/07/17 10:17:37;;;;;;;;;;;;;;;-146.32;100.00;63746.28;4097324;28;20020;-66
2023/07/17 10:19:44;;;;;;;;;;;;;;;-146.32;100.00;63746.28;4096996;28;20092;-66
2023/07/17 10:21:55;;;;;;;;;;;;;;;-146.32;100.00;63746.28;4098249;28;20013;-66
2023/07/17 10:24:01;;;;;;;;;;;;;;;-146.32;100.00;63746.28;4096425;28;20367;-66
2023/07/17 10:26:10;;;;;;;;;;;;;;;-146.32;100.00;63746.28;4094759;28;20444;-66
2023/07/17 10:28:19;;;;;;;;;;;;;;;-146.32;100.00;63746.28;4111337;28;20022;-67
2023/07/17 10:30:22;;;;;;;;;;;;;;;-146.32;100.00;63746.28;4092005;28;20025;-66
2023/07/17 10:32:24;;;;;;;;;;;;;;;-146.32;100.00;63746.28;4094155;28;20038;-65
2023/07/17 10:34:40;;;;;;;;;;;;;;;-146.32;100.00;63746.28;4098092;28;20025;-67
2023/07/17 10:36:43;;;;;;;;;;;;;;;-146.32;100.00;63746.28;4097102;28;20021;-65
2023/07/17 10:38:48;;;;;;;;;;;;;;;-146.32;100.00;63746.28;4097406;28;20452;-66
2023/07/17 10:40:53;;;;;;;;;;;;;;;-146.32;100.00;63746.28;4096736;28;20436;-67
2023/07/17 10:42:55;;;;;;;;;;;;;;;-146.32;100.00;63746.28;4097352;28;20018;-65
2023/07/17 10:45:09;;;;;;;;;;;;;;;-146.32;100.00;63746.28;4097431;28;20416;-66
2023/07/17 10:47:11;;;;;;;;;;;;;;;-146.32;100.00;63746.28;4096907;28;20024;-66
2023/07/17 10:49:13;;;;;;;;;;;;;;;-146.32;100.00;63746.28;4094373;28;20313;-66
2023/07/17 10:51:16;;;;;;;;;;;;;;;-146.32;100.00;63746.28;4096501;28;20014;-66
2023/07/17 10:53:18;;;;;;;;;;;;;;;-146.32;100.00;63746.28;4096793;28;20041;-66
2023/07/17 10:55:20;;;;;;;;;;;;;;;-146.32;100.00;63746.28;4094162;29;20367;-69
2023/07/17 10:57:22;;;;;;;;;;;;;;;-146.32;100.00;63746.28;4091475;28;20048;-66
2023/07/17 10:59:26;;;;;;;;;;;;;;;-146.32;100.00;63746.28;4096183;28;20019;-66
2023/07/17 11:01:30;;;;;;;;;;;;;;;-146.32;100.00;63746.28;4096536;29;20021;-67
2023/07/17 11:03:33;;;;;;;;;;;;;;;-146.32;100.00;63746.28;4092061;29;19981;-66
2023/07/17 11:05:39;;;;;;;;;;;;;;;-146.32;100.00;63746.28;4095125;28;20093;-66
2023/07/17 11:07:41;;;;;;;;;;;;;;;-146.32;100.00;63746.28;4091802;28;20021;-66
2023/07/17 11:09:43;;;;;;;;;;;;;;;-146.32;100.00;63746.28;4095535;28;20025;-66
2023/07/17 11:11:45;;;;;;;;;;;;;;;-146.32;100.00;63746.28;4096075;28;20013;-66
2023/07/17 11:13:48;;;;;;;;;;;;;;;-146.32;100.00;63746.28;4093246;28;20028;-65
2023/07/17 11:15:50;;;;;;;;;;;;;;;-146.32;100.00;63746.28;4094646;29;20009;-64
2023/07/17 11:17:53;;;;;;;;;;;;;;;-146.32;100.00;63746.28;4094856;28;20010;-65
2023/07/17 11:20:00;;;;;;;;;;;;;;;-146.32;100.00;63746.28;4093289;28;20041;-65
2023/07/17 11:22:02;;;;;;;;;;;;;;;-146.32;100.00;63746.28;4095329;28;20432;-66
2023/07/17 11:24:07;;;;;;;;;;;;;;;-146.32;100.00;63746.28;4103436;28;20013;-66
2023/07/17 11:26:09;;;;;;;;;;;;;;;-146.32;100.00;63746.28;4097116;28;20016;-66
2023/07/17 11:28:11;;;;;;;;;;;;;;;-146.32;100.00;63746.28;4097026;28;20834;-66
2023/07/17 11:30:16;;;;;;;;;;;;;;;-146.32;100.00;63746.28;4094611;29;20021;-67
2023/07/17 11:32:19;;;;;;;;;;;;;;;-146.32;100.00;63746.28;4092283;28;20354;-67
2023/07/17 11:34:23;;;;;;;;;;;;;;;-146.32;100.00;63746.28;4096790;28;20017;-66
2023/07/17 11:36:25;;;;;;;;;;;;;;;-146.32;100.00;63746.28;4097910;28;20009;-68
2023/07/17 11:38:27;;;;;;;;;;;;;;;-146.32;100.00;63746.28;4096151;28;20025;-68
2023/07/17 11:40:29;;;;;;;;;;;;;;;-146.32;100.00;63746.28;4095776;28;20399;-67
2023/07/17 11:42:30;;;;;;;;;;;;;;;-146.32;100.00;63746.28;4093482;28;20352;-68
2023/07/17 11:44:36;;;;;;;;;;;;;;;-146.32;100.00;63746.28;4096193;28;19926;-67
2023/07/17 11:46:39;;;;;;;;;;;;;;;-146.32;100.00;63746.28;4099693;28;20017;-67
2023/07/17 11:48:41;;;;;;;;;;;;;;;-146.32;100.00;63746.28;4095309;28;20045;-68
2023/07/17 11:50:44;;;;;;;;;;;;;;;-146.32;100.00;63746.28;4097863;28;20464;-67
2023/07/17 11:52:46;;;;;;;;;;;;;;;-146.32;100.00;63746.28;4096661;28;20016;-67
2023/07/17 11:54:49;;;;;;;;;;;;;;;-146.32;100.00;63746.28;4098089;28;20014;-67
2023/07/17 11:56:52;;;;;;;;;;;;;;;-146.32;100.00;63746.28;4097488;28;20448;-67
2023/07/17 11:58:54;;;;;;;;;;;;;;;-146.32;100.00;63746.28;4097256;28;20025;-68
2023/07/17 12:00:56;;;;;;;;;;;;;;;-146.32;100.00;63746.28;4096055;28;20543;-66
2023/07/17 12:02:57;;;;;;;;;;;;;;;-146.32;100.00;63746.28;4096652;28;20013;-67
2023/07/17 12:05:01;;;;;;;;;;;;;;;-146.32;100.00;63746.28;4089873;28;19923;-67
2023/07/17 12:07:07;;;;;;;;;;;;;;;-146.32;100.00;63746.28;4092861;28;20029;-68
2023/07/17 12:09:10;;;;;;;;;;;;;;;-146.32;100.00;63746.28;4091075;28;20013;-66
2023/07/17 12:11:12;;;;;;;;;;;;;;;-146.32;100.00;63746.28;4088803;28;20482;-66
2023/07/17 12:13:15;;;;;;;;;;;;;;;-146.32;100.00;63746.28;4092952;28;20021;-67
2023/07/17 12:15:17;;;;;;;;;;;;;;;-146.32;100.00;63746.28;4096936;28;20008;-66
2023/07/17 12:17:19;;;;;;;;;;;;;;;-146.32;100.00;63746.28;4097679;28;20036;-67
2023/07/17 12:19:21;;;;;;;;;;;;;;;-146.32;100.00;63746.28;4097764;28;20013;-66
2023/07/17 12:21:28;;;;;;;;;;;;;;;-146.32;100.00;63746.28;4095498;28;20012;-67
2023/07/17 12:23:31;;;;;;;;;;;;;;;-146.32;100.00;63746.28;4094693;28;20017;-67
2023/07/17 12:25:33;;;;;;;;;;;;;;;-146.32;100.00;63746.28;4091660;28;20013;-66
2023/07/17 12:27:35;;;;;;;;;;;;;;;-146.32;100.00;63746.28;4097227;28;21417;-67
2023/07/17 12:29:38;;;;;;;;;;;;;;;-146.32;100.00;63746.28;4093476;28;19922;-68
2023/07/17 12:31:41;;;;;;;;;;;;;;;-146.32;100.00;63746.28;4089085;28;20009;-67
2023/07/17 12:33:43;;;;;;;;;;;;;;;-146.32;100.00;63746.28;4091972;28;20025;-66
2023/07/17 12:35:46;;;;;;;;;;;;;;;-146.32;100.00;63746.28;4092986;28;20021;-66
2023/07/17 12:37:48;;;;;;;;;;;;;;;-146.32;100.00;63746.28;4090464;28;20364;-67
2023/07/17 12:39:53;;;;;;;;;;;;;;;-146.32;100.00;63746.28;4089971;28;20006;-67
2023/07/17 12:41:55;;;;;;;;;;;;;;;-146.32;100.00;63746.28;4095558;28;20009;-66
2023/07/17 12:43:57;;;;;;;;;;;;;;;-146.32;100.00;63746.28;4095182;28;20005;-67
2023/07/17 12:45:58;;;;;;;;;;;;;;;-146.32;100.00;63746.28;4095231;28;20009;-67
2023/07/17 12:48:00;;;;;;;;;;;;;;;-146.32;100.00;63746.28;4093689;28;20024;-68
2023/07/17 12:50:01;;;;;;;;;;;;;;;-146.32;100.00;63746.28;4095360;28;20005;-66
2023/07/17 12:52:03;;;;;;;;;;;;;;;-146.32;100.00;63746.28;4096725;28;19978;-67
2023/07/17 12:54:06;;;;;;;;;;;;;;;-146.32;100.00;63746.28;4097520;28;20009;-67
2023/07/17 12:56:09;;;;;;;;;;;;;;;-146.32;100.00;63746.28;4100124;28;20476;-67
2023/07/17 12:58:11;;;;;;;;;;;;;;;-146.32;100.00;63746.28;4099713;28;20005;-67
2023/07/17 13:00:14;;;;;;;;;;;;;;;-146.32;100.00;63746.28;4099034;28;20028;-66
2023/07/17 13:02:16;;;;;;;;;;;;;;;-146.32;100.00;63746.28;4098202;28;20410;-66
2023/07/17 13:04:18;;;;;;;;;;;;;;;-146.32;100.00;63746.28;4098775;28;20365;-66
2023/07/17 13:06:20;;;;;;;;;;;;;;;-146.32;100.00;63746.28;4099072;28;20424;-67
2023/07/17 13:08:22;;;;;;;;;;;;;;;-146.32;100.00;63746.28;4097439;28;20009;-67
2023/07/17 13:10:24;;;;;;;;;;;;;;;-146.32;100.00;63746.28;4096710;28;20025;-66
2023/07/17 13:12:28;;;;;;;;;;;;;;;-146.32;100.00;63746.28;4096592;28;20014;-66
2023/07/17 13:14:30;;;;;;;;;;;;;;;-146.32;100.00;63746.28;4097832;28;20429;-66
2023/07/17 13:16:32;;;;;;;;;;;;;;;-146.32;100.00;63746.28;4112181;28;20350;-67
2023/07/17 13:18:34;;;;;;;;;;;;;;;-146.32;100.00;63746.28;4094083;28;20037;-67
2023/07/17 13:20:36;;;;;;;;;;;;;;;-146.32;100.00;63746.28;4096997;28;20025;-68
2023/07/17 13:22:38;;;;;;;;;;;;;;;-146.32;100.00;63746.28;4097454;28;20014;-67
2023/07/17 13:24:40;;;;;;;;;;;;;;;-146.32;100.00;63746.28;4097100;28;20622;-67
2023/07/17 13:26:42;;;;;;;;;;;;;;;-146.32;100.00;63746.28;4098412;28;20022;-68
2023/07/17 13:28:46;;;;;;;;;;;;;;;-146.32;100.00;63746.28;4100432;28;20712;-68
2023/07/17 13:30:47;;;;;;;;;;;;;;;-146.32;100.00;63746.28;4097187;28;20013;-68
2023/07/17 13:32:50;;;;;;;;;;;;;;;-146.32;100.00;63746.28;4096039;28;20355;-67
2023/07/17 13:34:52;;;;;;;;;;;;;;;-146.32;100.00;63746.28;4098964;28;20013;-67
2023/07/17 13:36:54;;;;;;;;;;;;;;;-146.32;100.00;63746.28;4098650;28;20041;-66
2023/07/17 13:38:56;;;;;;;;;;;;;;;-146.32;100.00;63746.28;4096752;28;20009;-65
2023/07/17 13:40:58;;;;;;;;;;;;;;;-146.32;100.00;63746.28;4098368;28;20025;-66
2023/07/17 13:43:00;;;;;;;;;;;;;;;-146.32;100.00;63746.28;4098291;28;20009;-66
2023/07/17 13:45:04;;;;;;;;;;;;;;;-146.32;100.00;63746.28;4095917;29;20018;-66
2023/07/17 13:47:07;;;;;;;;;;;;;;;-146.32;100.00;63746.28;4095901;28;20461;-66
2023/07/17 13:49:09;;;;;;;;;;;;;;;-146.32;100.00;63746.28;4094859;28;20022;-66
2023/07/17 13:51:11;;;;;;;;;;;;;;;-146.32;100.00;63746.28;4095661;28;20022;-66
2023/07/17 13:53:13;;;;;;;;;;;;;;;-146.32;100.00;63746.28;4095943;28;20353;-66
2023/07/17 13:55:18;;;;;;;;;;;;;;;-146.32;100.00;63746.28;4098162;28;20460;-65
2023/07/17 13:57:20;;;;;;;;;;;;;;;-146.32;100.00;63746.28;4096490;28;20017;-65
2023/07/17 13:59:22;;;;;;;;;;;;;;;-146.32;100.00;63746.28;4096654;28;20016;-66
2023/07/17 14:01:25;;;;;;;;;;;;;;;-146.32;100.00;63746.28;4096773;28;20341;-68
2023/07/17 14:03:30;;;;;;;;;;;;;;;-146.32;100.00;63746.28;4097206;28;20848;-67
2023/07/17 14:05:36;;;;;;;;;;;;;;;-146.32;100.00;63746.28;4097570;28;19922;-67
2023/07/17 14:07:38;;;;;;;;;;;;;;;-146.32;100.00;63746.28;4097201;28;20393;-67
2023/07/17 14:09:40;;;;;;;;;;;;;;;-146.32;100.00;63746.28;4098134;28;19976;-67
2023/07/17 14:11:44;;;;;;;;;;;;;;;-146.32;100.00;63746.28;4096977;28;20018;-66
2023/07/17 14:13:45;;;;;;;;;;;;;;;-146.32;100.00;63746.28;4096857;28;20360;-66
2023/07/17 14:15:47;;;;;;;;;;;;;;;-146.32;100.00;63746.28;4097481;28;20025;-67
2023/07/17 14:17:50;;;;;;;;;;;;;;;-146.32;100.00;63746.28;4098039;28;20341;-67
2023/07/17 14:19:55;;;;;;;;;;;;;;;-146.32;100.00;63746.28;4095751;28;19926;-66
2023/07/17 14:22:00;;;;;;;;;;;;;;;-146.32;100.00;63746.28;4096688;28;20021;-68
2023/07/17 14:24:03;;;;;;;;;;;;;;;-146.32;100.00;63746.28;4096986;28;20005;-68
2023/07/17 14:26:07;;;;;;;;;;;;;;;-146.32;100.00;63746.28;4095815;28;20009;-66
2023/07/17 14:28:09;;;;;;;;;;;;;;;-146.32;100.00;63746.28;4095230;28;20014;-67
2023/07/17 14:30:12;;;;;;;;;;;;;;;-146.32;100.00;63746.28;4095039;28;20030;-67
2023/07/17 14:32:19;;;;;;;;;;;;;;;-146.32;100.00;63746.28;4095373;28;20013;-66
2023/07/17 14:34:23;;;;;;;;;;;;;;;-146.32;100.00;63746.28;4096859;28;20006;-66
2023/07/17 14:36:32;;;;;;;;;;;;;;;-146.32;100.00;63746.28;4095772;28;20460;-67
2023/07/17 14:38:36;;;;;;;;;;;;;;;-146.32;100.00;63746.28;4096676;28;20034;-68
2023/07/17 14:40:39;;;;;;;;;;;;;;;-146.32;100.00;63746.28;4096501;28;20087;-67
2023/07/17 14:42:43;;;;;;;;;;;;;;;-146.32;100.00;63746.28;4096250;28;20467;-67
2023/07/17 14:44:46;;;;;;;;;;;;;;;-146.32;100.00;63746.28;4097263;28;20080;-67
2023/07/17 14:46:48;;;;;;;;;;;;;;;-146.32;100.00;63746.28;4098524;28;20016;-68
2023/07/17 14:48:52;;;;;;;;;;;;;;;-146.32;100.00;63746.28;4096701;28;20020;-67
2023/07/17 14:50:55;;;;;;;;;;;;;;;-146.32;100.00;63746.28;4088451;28;20009;-67
2023/07/17 14:52:56;;;;;;;;;;;;;;;-146.32;100.00;63746.28;4095418;28;20017;-67
2023/07/17 14:54:58;;;;;;;;;;;;;;;-146.32;100.00;63746.28;4097105;28;20021;-67
2023/07/17 14:57:00;;;;;;;;;;;;;;;-146.32;100.00;63746.28;4096344;28;20017;-67
2023/07/17 14:59:02;;;;;;;;;;;;;;;-146.32;100.00;63746.28;4096150;28;19997;-66
2023/07/17 15:01:04;;;;;;;;;;;;;;;-146.32;100.00;63746.28;4095880;28;20025;-66
2023/07/17 15:03:07;;;;;;;;;;;;;;;-146.32;100.00;63746.28;4095707;28;20009;-68
2023/07/17 15:05:10;;;;;;;;;;;;;;;-146.32;100.00;63746.28;4096142;28;20016;-68
2023/07/17 15:07:13;;;;;;;;;;;;;;;-146.32;100.00;63746.28;4094854;28;20005;-68
2023/07/17 15:09:15;;;;;;;;;;;;;;;-146.32;100.00;63746.28;4094442;28;20009;-68
2023/07/17 15:11:17;;;;;;;;;;;;;;;-146.32;100.00;63746.28;4095749;28;20493;-68
2023/07/17 15:13:22;;;;;;;;;;;;;;;-146.32;100.00;63746.28;4094272;28;20254;-68
2023/07/17 15:15:24;;;;;;;;;;;;;;;-146.32;100.00;63746.28;4092022;28;20022;-68
2023/07/17 15:17:26;;;;;;;;;;;;;;;-146.32;100.00;63746.28;4091504;28;20465;-68
2023/07/17 15:19:28;;;;;;;;;;;;;;;-146.32;100.00;63746.28;4096028;28;20013;-67
2023/07/17 15:21:30;;;;;;;;;;;;;;;-146.32;100.00;63746.28;4095315;28;20009;-67
2023/07/17 15:23:35;;;;;;;;;;;;;;;-146.32;100.00;63746.28;4093510;28;20009;-68
2023/07/17 15:25:37;;;;;;;;;;;;;;;-146.32;100.00;63746.28;4094722;28;20475;-67
2023/07/17 15:27:39;;;;;;;;;;;;;;;-146.32;100.00;63746.28;4093171;28;20030;-67
2023/07/17 15:29:41;;;;;;;;;;;;;;;-146.32;100.00;63746.28;4094162;29;20038;-67
2023/07/17 15:31:45;;;;;;;;;;;;;;;-146.32;100.00;63746.28;4093283;28;20009;-67
2023/07/17 15:33:47;;;;;;;;;;;;;;;-146.32;100.00;63746.28;4094583;28;20048;-67
2023/07/17 15:35:48;;;;;;;;;;;;;;;-146.32;100.00;63746.28;4092350;28;20028;-68
2023/07/17 15:37:51;;;;;;;;;;;;;;;-146.32;100.00;63746.28;4092601;28;20025;-67
2023/07/17 15:39:54;;;;;;;;;;;;;;;-146.32;100.00;63746.28;4094447;28;20013;-67
2023/07/17 15:41:57;;;;;;;;;;;;;;;-146.32;100.00;63746.28;4095382;28;20364;-67
2023/07/17 15:44:03;;;;;;;;;;;;;;;-146.32;100.00;63746.28;4091931;28;20013;-67
2023/07/17 15:46:05;;;;;;;;;;;;;;;-146.32;100.00;63746.28;4095523;28;20021;-69
2023/07/17 15:48:07;;;;;;;;;;;;;;;-146.32;100.00;63746.28;4093635;28;20005;-69
2023/07/17 15:50:11;;;;;;;;;;;;;;;-146.32;100.00;63746.28;4093227;28;20026;-69
2023/07/17 15:52:13;;;;;;;;;;;;;;;-146.32;100.00;63746.28;4094214;28;20025;-69
2023/07/17 15:54:15;;;;;;;;;;;;;;;-146.32;100.00;63746.28;4111039;28;20500;-68
2023/07/17 15:56:19;;;;;;;;;;;;;;;-146.32;100.00;63746.28;4094872;28;19926;-69
2023/07/17 15:58:32;;;;;;;;;;;;;;;-146.32;100.00;63746.28;4091001;28;20002;-69
2023/07/17 16:00:34;;;;;;;;;;;;;;;-146.32;100.00;63746.28;4095239;28;20017;-69
2023/07/17 16:02:36;;;;;;;;;;;;;;;-146.32;100.00;63746.28;4093325;28;20017;-68
2023/07/17 16:04:38;;;;;;;;;;;;;;;-146.32;100.00;63746.28;4096075;28;20566;-70
2023/07/17 16:06:40;;;;;;;;;;;;;;;-146.32;100.00;63746.28;4096142;28;20032;-68
2023/07/17 16:08:42;;;;;;;;;;;;;;;-146.32;100.00;63746.28;4095958;28;20349;-69
2023/07/17 16:10:45;;;;;;;;;;;;;;;-146.32;100.00;63746.28;4058731;28;1087180;-69
2023/07/17 16:12:56;;;;;;;;;;;;;;;-146.32;100.00;63746.28;4096706;28;20021;-70
2023/07/17 16:14:58;;;;;;;;;;;;;;;-146.32;100.00;63746.28;4094186;28;20001;-69
2023/07/17 16:17:00;;;;;;;;;;;;;;;-146.32;100.00;63746.28;4095010;28;20371;-69
2023/07/17 16:19:05;;;;;;;;;;;;;;;-146.32;100.00;63746.28;4096147;28;20357;-72
2023/07/17 16:21:07;;;;;;;;;;;;;;;-146.32;100.00;63746.28;4097735;28;20016;-70
2023/07/17 16:23:11;;;;;;;;;;;;;;;-146.32;100.00;63746.28;4095069;29;20026;-70
2023/07/17 16:25:13;;;;;;;;;;;;;;;-146.32;100.00;63746.28;4096464;28;20001;-70
2023/07/17 16:27:15;;;;;;;;;;;;;;;-146.32;100.00;63746.28;4097018;28;20019;-71
2023/07/17 16:29:18;;;;;;;;;;;;;;;-146.32;100.00;63746.28;4095863;28;20412;-71
2023/07/17 16:31:22;;;;;;;;;;;;;;;-146.32;100.00;63746.28;4087425;29;20444;-69
2023/07/17 16:33:24;;;;;;;;;;;;;;;-146.32;100.00;63746.28;4094145;28;20005;-69
2023/07/17 16:35:26;;;;;;;;;;;;;;;-146.32;100.00;63746.28;4095748;28;20009;-69
2023/07/17 16:37:28;;;;;;;;;;;;;;;-146.32;100.00;63746.28;4094318;28;20077;-71
2023/07/17 16:39:30;;;;;;;;;;;;;;;-146.32;100.00;63746.28;4094599;28;20009;-69
2023/07/17 16:41:34;;;;;;;;;;;;;;;-146.32;100.00;63746.28;4094476;28;20009;-71
2023/07/17 16:43:41;;;;;;;;;;;;;;;-146.32;100.00;63746.28;4094821;28;20472;-71
2023/07/17 16:45:45;;;;;;;;;;;;;;;-146.32;100.00;63746.28;4094942;28;20472;-69
2023/07/17 16:47:47;;;;;;;;;;;;;;;-146.32;100.00;63746.28;4093223;28;20351;-67
2023/07/17 16:49:48;;;;;;;;;;;;;;;-146.32;100.00;63746.28;4095116;29;20024;-70
2023/07/17 16:51:50;;;;;;;;;;;;;;;-146.32;100.00;63746.28;4094511;29;20049;-68
2023/07/17 16:53:53;;;;;;;;;;;;;;;-146.32;100.00;63746.28;4095636;28;20018;-65
2023/07/17 16:55:55;;;;;;;;;;;;;;;-146.32;100.00;63746.28;4095918;28;20198;-68
2023/07/17 16:57:57;;;;;;;;;;;;;;;-146.32;100.00;63746.28;4095425;28;20009;-68
2023/07/17 17:00:01;;;;;;;;;;;;;;;-146.32;100.00;63746.28;4097050;28;20447;-70
2023/07/17 17:02:06;;;;;;;;;;;;;;;-146.32;100.00;63746.28;4096052;28;20013;-68
2023/07/17 17:04:08;;;;;;;;;;;;;;;-146.32;100.00;63746.28;4094542;28;20763;-68
2023/07/17 17:06:10;;;;;;;;;;;;;;;-146.32;100.00;63746.28;4096601;28;20017;-68
2023/07/17 17:08:12;;;;;;;;;;;;;;;-146.32;100.00;63746.28;4095386;28;20416;-68
2023/07/17 17:10:13;;;;;;;;;;;;;;;-146.32;100.00;63746.28;4080229;29;20046;-69
2023/07/17 17:12:15;;;;;;;;;;;;;;;-146.32;100.00;63746.28;4094370;28;20025;-69
2023/07/17 17:14:18;;;;;;;;;;;;;;;-146.32;100.00;63746.28;4095916;28;20021;-68
2023/07/17 17:16:20;;;;;;;;;;;;;;;-146.32;100.00;63746.28;4095809;28;20024;-68
2023/07/17 17:18:23;;;;;;;;;;;;;;;-146.32;100.00;63746.28;4094602;28;20344;-68
2023/07/17 17:20:25;;;;;;;;;;;;;;;-146.32;100.00;63746.28;4095352;28;20027;-67
2023/07/17 17:22:27;;;;;;;;;;;;;;;-146.32;100.00;63746.28;4096454;28;20033;-68
2023/07/17 17:24:29;;;;;;;;;;;;;;;-146.32;100.00;63746.28;4095796;28;19968;-67
2023/07/17 17:26:31;;;;;;;;;;;;;;;-146.32;100.00;63746.28;4094918;29;20391;-68
2023/07/17 17:28:33;;;;;;;;;;;;;;;-146.32;100.00;63746.28;4093979;28;20025;-68
2023/07/17 17:30:35;;;;;;;;;;;;;;;-146.32;100.00;63746.28;4094858;28;20030;-68
2023/07/17 17:32:37;;;;;;;;;;;;;;;-146.32;100.00;63746.28;4094512;28;20843;-68
2023/07/17 17:34:40;;;;;;;;;;;;;;;-146.32;100.00;63746.28;4095899;28;20006;-69
2023/07/17 17:36:42;;;;;;;;;;;;;;;-146.32;100.00;63746.28;4096138;28;20009;-69
2023/07/17 17:38:44;;;;;;;;;;;;;;;-146.32;100.00;63746.28;4095367;28;20357;-68
2023/07/17 17:40:47;;;;;;;;;;;;;;;-146.32;100.00;63746.28;4096742;28;20025;-68
2023/07/17 17:42:52;;;;;;;;;;;;;;;-146.32;100.00;63746.28;4099217;28;20014;-67
2023/07/17 17:44:54;;;;;;;;;;;;;;;-146.32;100.00;63746.28;4099024;28;20021;-67
2023/07/17 17:46:56;;;;;;;;;;;;;;;-146.32;100.00;63746.28;4097335;28;20380;-68
2023/07/17 17:49:00;;;;;;;;;;;;;;;-146.32;100.00;63746.28;4096812;28;20387;-69
2023/07/17 17:51:03;;;;;;;;;;;;;;;-146.32;100.00;63746.28;4098872;28;20022;-69
2023/07/17 17:53:05;;;;;;;;;;;;;;;-146.32;100.00;63746.28;4098203;28;20289;-69
2023/07/17 17:55:07;;;;;;;;;;;;;;;-146.32;100.00;63746.28;4098995;29;20025;-68
2023/07/17 17:57:09;;;;;;;;;;;;;;;-146.32;100.00;63746.28;4098334;28;20393;-68
2023/07/17 17:59:10;;;;;;;;;;;;;;;-146.32;100.00;63746.28;4098014;28;20013;-69
2023/07/17 18:01:17;;;;;;;;;;;;;;;-146.32;100.00;63746.28;4099125;28;19926;-68
2023/07/17 18:03:20;;;;;;;;;;;;;;;-146.32;100.00;63746.28;4097915;28;20024;-68
2023/07/17 18:05:22;;;;;;;;;;;;;;;-146.32;100.00;63746.28;4099131;29;20016;-69
2023/07/17 18:07:25;;;;;;;;;;;;;;;-146.32;100.00;63746.28;4097320;28;20021;-69
2023/07/17 18:09:27;;;;;;;;;;;;;;;-146.32;100.00;63746.28;4099347;28;20021;-68
2023/07/17 18:11:32;;;;;;;;;;;;;;;-146.32;100.00;63746.28;4098032;28;20029;-69
2023/07/17 18:13:34;;;;;;;;;;;;;;;-146.32;100.00;63746.28;4098718;28;20369;-69
2023/07/17 18:15:36;;;;;;;;;;;;;;;-146.32;100.00;63746.28;4097472;28;20013;-68
2023/07/17 18:17:38;;;;;;;;;;;;;;;-146.32;100.00;63746.28;4097201;28;20009;-68
2023/07/17 18:19:43;;;;;;;;;;;;;;;-146.32;100.00;63746.28;4099405;28;20005;-68
2023/07/17 18:21:49;;;;;;;;;;;;;;;-146.32;100.00;63746.28;4114112;28;20009;-69
2023/07/17 18:23:53;;;;;;;;;;;;;;;-146.32;100.00;63746.28;4097590;28;20009;-68
2023/07/17 18:25:57;;;;;;;;;;;;;;;-146.32;100.00;63746.28;4097501;28;20024;-69
2023/07/17 18:27:59;;;;;;;;;;;;;;;-146.32;100.00;63746.28;4098451;28;20466;-69
2023/07/17 18:30:03;;;;;;;;;;;;;;;-146.32;100.00;63746.28;4097974;28;20009;-69
2023/07/17 18:32:05;;;;;;;;;;;;;;;-146.32;100.00;63746.28;4097841;28;19929;-69
2023/07/17 18:34:07;;;;;;;;;;;;;;;-146.32;100.00;63746.28;4097967;28;20391;-68
2023/07/17 18:36:10;;;;;;;;;;;;;;;-146.32;100.00;63746.28;4095521;28;20038;-67
2023/07/17 18:38:12;;;;;;;;;;;;;;;-146.32;100.00;63746.28;4096606;28;20009;-70
2023/07/17 18:40:15;;;;;;;;;;;;;;;-146.32;100.00;63746.28;4097431;28;20009;-70
2023/07/17 18:42:18;;;;;;;;;;;;;;;-146.32;100.00;63746.28;4096802;28;20021;-68
2023/07/17 18:44:20;;;;;;;;;;;;;;;-146.32;100.00;63746.28;4098638;28;20005;-67
2023/07/17 18:46:22;;;;;;;;;;;;;;;-146.32;100.00;63746.28;4098197;28;20009;-69
2023/07/17 18:48:24;;;;;;;;;;;;;;;-146.32;100.00;63746.28;4097502;28;20018;-68
2023/07/17 18:50:26;;;;;;;;;;;;;;;-146.32;100.00;63746.28;4097550;28;20025;-68
2023/07/17 18:52:29;;;;;;;;;;;;;;;-146.32;100.00;63746.28;4098544;28;20034;-69
2023/07/17 18:54:30;;;;;;;;;;;;;;;-146.32;100.00;63746.28;4097897;28;19933;-68
2023/07/17 18:56:33;;;;;;;;;;;;;;;-146.32;100.00;63746.28;4098477;28;19965;-68
2023/07/17 18:58:36;;;;;;;;;;;;;;;-146.32;100.00;63746.28;4097483;28;20488;-71
2023/07/17 19:00:38;;;;;;;;;;;;;;;-146.32;100.00;63746.28;4091601;28;20353;-69
2023/07/17 19:02:40;;;;;;;;;;;;;;;-146.32;100.00;63746.28;4097108;28;20018;-70
2023/07/17 19:04:42;;;;;;;;;;;;;;;-146.32;100.00;63746.28;4098481;28;20021;-69
2023/07/17 19:06:43;;;;;;;;;;;;;;;-146.32;100.00;63746.28;4097803;28;20021;-71
2023/07/17 19:08:45;;;;;;;;;;;;;;;-146.32;100.00;63746.28;4098149;28;20018;-69
2023/07/17 19:10:47;;;;;;;;;;;;;;;-146.32;100.00;63746.28;4080265;29;19954;-71
2023/07/17 19:12:51;;;;;;;;;;;;;;;-146.32;100.00;63746.28;4096298;28;20017;-71
2023/07/17 19:14:53;;;;;;;;;;;;;;;-146.32;100.00;63746.28;4097674;28;20029;-71
2023/07/17 19:16:57;;;;;;;;;;;;;;;-146.32;100.00;63746.28;4098109;29;20001;-71
2023/07/17 19:18:59;;;;;;;;;;;;;;;-146.32;100.00;63746.28;4096682;28;20021;-72
2023/07/17 19:21:01;;;;;;;;;;;;;;;-146.32;100.00;63746.28;4096968;28;20021;-71
2023/07/17 19:23:03;;;;;;;;;;;;;;;-146.32;100.00;63746.28;4097721;28;20425;-72
2023/07/17 19:25:05;;;;;;;;;;;;;;;-146.32;100.00;63746.28;4097174;28;20017;-72
2023/07/17 19:27:08;;;;;;;;;;;;;;;-146.32;100.00;63746.28;4097520;28;20364;-71
2023/07/17 19:29:14;;;;;;;;;;;;;;;-146.32;100.00;63746.28;4104295;28;20491;-71
2023/07/17 19:31:16;;;;;;;;;;;;;;;-146.32;100.00;63746.28;4096962;28;20018;-72
2023/07/17 19:33:18;;;;;;;;;;;;;;;-146.32;100.00;63746.28;4097078;28;20049;-72
2023/07/17 19:35:20;;;;;;;;;;;;;;;-146.32;100.00;63746.28;4097937;28;20368;-72
2023/07/17 19:37:22;;;;;;;;;;;;;;;-146.32;100.00;63746.28;4097155;28;20059;-72
2023/07/17 19:39:24;;;;;;;;;;;;;;;-146.32;100.00;63746.28;4097640;28;20005;-72
2023/07/17 19:41:26;;;;;;;;;;;;;;;-146.32;100.00;63746.28;4096950;28;20039;-72
2023/07/17 19:43:28;;;;;;;;;;;;;;;-146.32;100.00;63746.28;4097289;28;20013;-71
2023/07/17 19:45:32;;;;;;;;;;;;;;;-146.32;100.00;63746.28;4098164;28;20026;-72
2023/07/17 19:47:34;;;;;;;;;;;;;;;-146.32;100.00;63746.28;4096753;28;20017;-71
2023/07/17 19:49:35;;;;;;;;;;;;;;;-146.32;100.00;63746.28;4096841;28;20005;-70
2023/07/17 19:51:38;;;;;;;;;;;;;;;-146.32;100.00;63746.28;4097304;28;20472;-72
2023/07/17 19:53:40;;;;;;;;;;;;;;;-146.32;100.00;63746.28;4096439;28;19930;-71
2023/07/17 19:55:45;;;;;;;;;;;;;;;-146.32;100.00;63746.28;4085937;28;20009;-70
2023/07/17 19:57:48;;;;;;;;;;;;;;;-146.32;100.00;63746.28;4091218;28;20005;-75
2023/07/17 19:59:49;;;;;;;;;;;;;;;-146.32;100.00;63746.28;4092124;28;20385;-74
2023/07/17 20:01:56;;;;;;;;;;;;;;;-146.32;100.00;63746.28;4092149;28;20005;-73
2023/07/17 20:04:05;;;;;;;;;;;;;;;-146.32;100.00;63746.28;4074595;28;20018;-74
2023/07/17 20:06:09;;;;;;;;;;;;;;;-146.32;100.00;63746.28;4092300;28;20021;-72
2023/07/17 20:08:21;;;;;;;;;;;;;;;-146.32;100.00;63746.28;4087553;28;19926;-71
2023/07/17 20:10:23;;;;;;;;;;;;;;;-146.32;100.00;63746.28;4091538;28;20488;-72
2023/07/17 20:12:25;;;;;;;;;;;;;;;-146.32;100.00;63746.28;4089791;28;20057;-71
2023/07/17 20:14:31;;;;;;;;;;;;;;;-146.32;100.00;63746.28;4091787;28;20456;-71
2023/07/17 20:16:51;;;;;;;;;;;;;;;;;;;;;
2023/07/17 20:19:00;;;;;;;;;;;;;;;-146.32;100.00;63746.28;4091183;28;20028;-70
2023/07/17 20:21:02;;;;;;;;;;;;;;;-146.32;100.00;63746.28;4106070;28;20021;-70
2023/07/17 20:23:07;;;;;;;;;;;;;;;-146.32;100.00;63746.28;4091975;28;20069;-70
2023/07/17 20:25:10;;;;;;;;;;;;;;;-146.32;100.00;63746.28;4090460;28;20009;-70
2023/07/17 20:27:12;;;;;;;;;;;;;;;-146.32;100.00;63746.28;4093050;28;20484;-70